Lovely Lady — 9HIE6 — position and weather

sailwx.info

Track history (hours):
 
Tides and Currents Weather Stations Pressure Air Temp Water Temp Dewpoint Dewpoint Depression Visibility Wind Speed Wind Dir Waves Ship Positions

Lovely Lady

Last reported at 2017-Oct-06 11:36 UTC. Time now 2017-Oct-19 03:46 UTC.
Position N 35°50' E 014°49'.
Warning: this ship's position is 12 days out of date.

Length 182 m; draft 7.5 m.

Type: Tanker. MMSI: 248536000.

Date/timePositionNaut miles runAvg speedWind from/ knotsBaromVisibWave heightAir tempDewpointWater temp
2017-Oct-06 11:36N 35°50' E 014°49'0 0.1
2017-Oct-06 11:27N 35°50' E 014°49'0 0.0
2017-Oct-06 11:00N 35°50' E 014°49'1 0.3
2017-Oct-06 06:31N 35°49' E 014°48'0 7.1
2017-Oct-06 06:30N 35°49' E 014°48'18 7.0
2017-Oct-06 03:53N 35°43' E 014°26'3 7.7
2017-Oct-06 03:30N 35°44' E 014°23'4 8.0
2017-Oct-06 03:00N 35°47' E 014°19'4 7.9
2017-Oct-06 02:29N 35°50' E 014°16'4 7.7
2017-Oct-06 02:00N 35°54' E 014°15'4 7.7
2017-Oct-06 01:30N 35°57' E 014°19'0 0.8
2017-Oct-06 00:58N 35°57' E 014°19'0 0.1
2017-Oct-06 00:28N 35°57' E 014°19'0 0.0
2017-Oct-05 23:58N 35°57' E 014°19'0 0.0
2017-Oct-05 23:28N 35°57' E 014°19'0 0.0
2017-Oct-05 22:58N 35°57' E 014°19'0 0.0
2017-Oct-05 22:28N 35°57' E 014°19'0 0.0
2017-Oct-05 21:58N 35°57' E 014°19'0 0.0
2017-Oct-05 21:28N 35°57' E 014°19'0 0.0
2017-Oct-05 20:55N 35°57' E 014°19'0 0.0
2017-Oct-05 20:28N 35°57' E 014°19'0 0.0
2017-Oct-05 19:58N 35°57' E 014°19'0 0.0
2017-Oct-05 19:28N 35°57' E 014°19'0 0.1
2017-Oct-05 18:58N 35°57' E 014°19'0 0.2
2017-Oct-05 18:30N 35°57' E 014°19'1 2.6
2017-Oct-05 18:00N 35°57' E 014°17'2 4.3
2017-Oct-05 17:30N 35°57' E 014°15'2 3.2
2017-Oct-05 17:00N 35°58' E 014°13'1 0.5
2017-Oct-05 15:30N 35°58' E 014°14'0 0.6
2017-Oct-05 15:00N 35°58' E 014°15'0 0.6
2017-Oct-05 14:30N 35°58' E 014°15'0 0.7
2017-Oct-05 14:00N 35°58' E 014°15'0 0.7
2017-Oct-05 13:30N 35°58' E 014°16'1 1.4
2017-Oct-05 13:00N 35°59' E 014°15'0 0.9
2017-Oct-05 12:30N 35°58' E 014°15'0 0.7
2017-Oct-05 12:00N 35°58' E 014°16'1 2.8
2017-Oct-05 11:30N 35°58' E 014°14'2 3.3
2017-Oct-05 10:59N 35°57' E 014°12'0 0.9
2017-Oct-05 10:30N 35°57' E 014°13'0 0.9
2017-Oct-05 10:00N 35°58' E 014°13'1 1.1
2017-Oct-05 09:30N 35°58' E 014°14'1 1.0
2017-Oct-05 09:00N 35°58' E 014°14'0 0.9
2017-Oct-05 08:30N 35°58' E 014°15'0 0.9
2017-Oct-05 08:00N 35°58' E 014°15'0 0.5
2017-Oct-05 07:30N 35°59' E 014°16'3 5.1
2017-Oct-05 07:00N 35°59' E 014°13'611.4
2017-Oct-05 06:30N 36°03' E 014°08'611.0
2017-Oct-05 05:59N 36°07' E 014°13'713.2
2017-Oct-05 05:30N 36°09' E 014°20'510.6
2017-Oct-05 05:00N 36°13' E 014°16'611.8
2017-Oct-05 04:30N 36°16' E 014°10'611.6
2017-Oct-05 04:00N 36°19' E 014°04'611.6
2017-Oct-05 03:30N 36°23' E 013°58'711.9
2017-Oct-05 02:57N 36°26' E 013°51'25612.5
2017-Oct-04 06:28N 38°54' E 009°27'612.6
2017-Oct-04 05:59N 38°57' E 009°21'611.7
2017-Oct-04 05:30N 39°00' E 009°14'612.1
2017-Oct-04 05:00N 39°03' E 009°08'4 8.4
2017-Oct-04 04:30N 39°05' E 009°03'0 0.2
2017-Oct-04 03:58N 39°05' E 009°03'0 0.0
2017-Oct-04 03:28N 39°05' E 009°03'0 0.0
2017-Oct-04 02:58N 39°05' E 009°03'0 0.0
2017-Oct-04 02:28N 39°05' E 009°03'0 0.0
2017-Oct-04 01:58N 39°05' E 009°03'0 0.0
2017-Oct-04 01:28N 39°05' E 009°03'0 0.0
2017-Oct-04 00:58N 39°05' E 009°03'0 0.0
2017-Oct-04 00:28N 39°05' E 009°03'0 0.0
2017-Oct-03 23:58N 39°05' E 009°03'0 0.0
2017-Oct-03 23:28N 39°05' E 009°03'0 0.0
2017-Oct-03 22:58N 39°05' E 009°03'0 0.0
2017-Oct-03 22:28N 39°05' E 009°03'0 0.0
2017-Oct-03 21:58N 39°05' E 009°03'0 0.0
2017-Oct-03 21:28N 39°05' E 009°03'0 0.0
2017-Oct-03 21:01N 39°05' E 009°03'0 0.0
2017-Oct-03 20:31N 39°05' E 009°03'0 0.0
2017-Oct-03 20:00N 39°05' E 009°03'0 0.0
2017-Oct-03 19:27N 39°05' E 009°03'0 0.0
2017-Oct-03 18:57N 39°05' E 009°03'0 0.0
2017-Oct-03 05:48N 39°05' E 009°03'0 0.0
2017-Oct-03 05:30N 39°05' E 009°03'0 0.0
2017-Oct-03 05:00N 39°05' E 009°03'0 0.0
2017-Oct-03 04:30N 39°05' E 009°03'0 0.0
2017-Oct-03 04:00N 39°05' E 009°03'0 0.0
2017-Oct-03 03:30N 39°05' E 009°03'0 0.0
2017-Oct-03 03:00N 39°05' E 009°03'0 0.0
2017-Oct-03 02:30N 39°05' E 009°03'0 0.0
2017-Oct-03 02:00N 39°05' E 009°03'0 0.0
2017-Oct-03 01:30N 39°05' E 009°03'0 0.0
2017-Oct-03 01:00N 39°05' E 009°03'0 0.0
2017-Oct-03 00:30N 39°05' E 009°03'0 0.0
2017-Oct-02 23:57N 39°05' E 009°03'0 0.0
2017-Oct-02 23:30N 39°05' E 009°03'0 0.0
2017-Oct-02 23:00N 39°05' E 009°03'0 0.0
2017-Oct-02 22:30N 39°05' E 009°03'0 0.0
2017-Oct-02 22:00N 39°05' E 009°03'0 0.0
2017-Oct-02 21:30N 39°05' E 009°03'0 0.0
2017-Oct-02 21:00N 39°05' E 009°03'0 0.0
2017-Oct-02 20:30N 39°05' E 009°03'0 0.0
2017-Oct-02 20:00N 39°05' E 009°03'0 0.0
2017-Oct-02 19:30N 39°05' E 009°03'0 0.0
2017-Oct-02 19:00N 39°05' E 009°03'0 0.0
2017-Oct-02 18:30N 39°05' E 009°03'0 0.0
2017-Oct-02 18:00N 39°05' E 009°03'0 0.0
2017-Oct-02 17:30N 39°05' E 009°03'0 0.0
2017-Oct-02 17:00N 39°05' E 009°03'0 0.0
2017-Oct-02 16:30N 39°05' E 009°03'0 0.0
2017-Oct-02 16:00N 39°05' E 009°03'0 0.0
2017-Oct-02 15:30N 39°05' E 009°03'0 0.0
2017-Oct-02 15:00N 39°05' E 009°03'0 0.0
2017-Oct-02 14:30N 39°05' E 009°03'0 0.0
2017-Oct-02 13:57N 39°05' E 009°03'0 0.0
2017-Oct-02 13:30N 39°05' E 009°03'0 0.0
2017-Oct-02 13:00N 39°05' E 009°03'0 0.0
2017-Oct-02 12:30N 39°05' E 009°03'0 0.0
2017-Oct-02 12:00N 39°05' E 009°03'0 0.0
2017-Oct-02 11:30N 39°05' E 009°03'0 0.0
2017-Oct-02 11:00N 39°05' E 009°03'0 0.0
2017-Oct-02 10:27N 39°05' E 009°03'0 0.0
2017-Oct-02 10:00N 39°05' E 009°03'0 0.0
2017-Oct-02 09:26N 39°05' E 009°03'0 0.0
2017-Oct-02 08:59N 39°05' E 009°03'0 0.0
2017-Oct-02 08:29N 39°05' E 009°03'0 0.0
2017-Oct-02 07:59N 39°05' E 009°03'0 0.0
2017-Oct-02 07:29N 39°05' E 009°03'0 0.0
2017-Oct-02 06:59N 39°05' E 009°03'1 1.9
2017-Oct-02 06:29N 39°04' E 009°04'0 0.4
2017-Oct-02 05:58N 39°04' E 009°04'0 0.2
2017-Oct-02 05:28N 39°04' E 009°04'0 0.0
2017-Oct-02 04:58N 39°04' E 009°04'0 0.0
2017-Oct-02 04:28N 39°04' E 009°04'0 0.0
2017-Oct-02 03:58N 39°04' E 009°04'0 0.0
2017-Oct-02 03:28N 39°04' E 009°04'0 0.0
2017-Oct-02 02:58N 39°04' E 009°04'0 0.1
2017-Oct-02 02:28N 39°04' E 009°04'0 0.0
2017-Oct-02 01:58N 39°04' E 009°04'0 0.0
2017-Oct-02 01:28N 39°04' E 009°04'0 0.0
2017-Oct-02 00:58N 39°04' E 009°04'0 0.1
2017-Oct-02 00:28N 39°04' E 009°04'0 0.0
2017-Oct-01 23:58N 39°04' E 009°04'0 0.1
2017-Oct-01 23:28N 39°04' E 009°04'0 0.1
2017-Oct-01 22:58N 39°04' E 009°04'0 0.0
2017-Oct-01 22:28N 39°04' E 009°04'0 0.0
2017-Oct-01 21:58N 39°04' E 009°04'0 0.1
2017-Oct-01 21:28N 39°04' E 009°04'0 0.1
2017-Oct-01 20:58N 39°04' E 009°03'0 0.0
2017-Oct-01 20:28N 39°04' E 009°04'0 0.0
2017-Oct-01 19:52N 39°04' E 009°03'0 0.0
2017-Oct-01 19:22N 39°04' E 009°04'0 0.2
2017-Oct-01 18:58N 39°04' E 009°04'0 0.1
2017-Oct-01 18:28N 39°04' E 009°04'0 0.1
2017-Oct-01 17:58N 39°04' E 009°04'0 0.1
2017-Oct-01 17:28N 39°04' E 009°04'0 0.1
2017-Oct-01 16:55N 39°04' E 009°04'0 0.0
2017-Oct-01 16:28N 39°04' E 009°04'0 0.1
2017-Oct-01 15:58N 39°04' E 009°04'0 0.0
2017-Oct-01 15:28N 39°04' E 009°04'0 0.0
2017-Oct-01 14:58N 39°04' E 009°04'0 0.0
2017-Oct-01 14:28N 39°04' E 009°04'0 0.0
2017-Oct-01 13:58N 39°04' E 009°03'0 0.0
2017-Oct-01 13:28N 39°04' E 009°03'0 0.1
2017-Oct-01 12:58N 39°04' E 009°03'0 0.1
2017-Oct-01 12:22N 39°04' E 009°03'0 0.1
2017-Oct-01 11:58N 39°04' E 009°04'0 0.1
2017-Oct-01 11:28N 39°04' E 009°04'0 0.0
2017-Oct-01 10:58N 39°04' E 009°04'0 0.1
2017-Oct-01 10:28N 39°04' E 009°04'0 0.0
2017-Oct-01 09:58N 39°04' E 009°04'0 0.0
2017-Oct-01 09:28N 39°04' E 009°04'0 0.0
2017-Oct-01 08:58N 39°04' E 009°04'0 0.0
2017-Oct-01 08:28N 39°04' E 009°04'0 0.0
2017-Oct-01 08:01N 39°04' E 009°04'0 0.0
2017-Oct-01 07:31N 39°04' E 009°04'  
Track history (hours):
 
Tides and Currents Weather Stations Pressure Air Temp Water Temp Dewpoint Dewpoint Depression Visibility Wind Speed Wind Dir Waves Ship Positions

Lovely Lady

Last reported at 2017-Oct-06 11:36 UTC. Time now 2017-Oct-19 03:46 UTC.
Position N 35°50' E 014°49'.
Warning: this ship's position is 12 days out of date.

Length 182 m; draft 7.5 m.

Type: Tanker. MMSI: 248536000.

Date/timePositionNaut miles runAvg speedWind from/ knotsBaromVisibWave heightAir tempDewpointWater temp
2017-Oct-06 11:36N 35°50' E 014°49'0 0.1
2017-Oct-06 11:27N 35°50' E 014°49'0 0.0
2017-Oct-06 11:00N 35°50' E 014°49'1 0.3
2017-Oct-06 06:31N 35°49' E 014°48'0 7.1
2017-Oct-06 06:30N 35°49' E 014°48'18 7.0
2017-Oct-06 03:53N 35°43' E 014°26'3 7.7
2017-Oct-06 03:30N 35°44' E 014°23'4 8.0
2017-Oct-06 03:00N 35°47' E 014°19'4 7.9
2017-Oct-06 02:29N 35°50' E 014°16'4 7.7
2017-Oct-06 02:00N 35°54' E 014°15'4 7.7
2017-Oct-06 01:30N 35°57' E 014°19'0 0.8
2017-Oct-06 00:58N 35°57' E 014°19'0 0.1
2017-Oct-06 00:28N 35°57' E 014°19'0 0.0
2017-Oct-05 23:58N 35°57' E 014°19'0 0.0
2017-Oct-05 23:28N 35°57' E 014°19'0 0.0
2017-Oct-05 22:58N 35°57' E 014°19'0 0.0
2017-Oct-05 22:28N 35°57' E 014°19'0 0.0
2017-Oct-05 21:58N 35°57' E 014°19'0 0.0
2017-Oct-05 21:28N 35°57' E 014°19'0 0.0
2017-Oct-05 20:55N 35°57' E 014°19'0 0.0
2017-Oct-05 20:28N 35°57' E 014°19'0 0.0
2017-Oct-05 19:58N 35°57' E 014°19'0 0.0
2017-Oct-05 19:28N 35°57' E 014°19'0 0.1
2017-Oct-05 18:58N 35°57' E 014°19'0 0.2
2017-Oct-05 18:30N 35°57' E 014°19'1 2.6
2017-Oct-05 18:00N 35°57' E 014°17'2 4.3
2017-Oct-05 17:30N 35°57' E 014°15'2 3.2
2017-Oct-05 17:00N 35°58' E 014°13'1 0.5
2017-Oct-05 15:30N 35°58' E 014°14'0 0.6
2017-Oct-05 15:00N 35°58' E 014°15'0 0.6
2017-Oct-05 14:30N 35°58' E 014°15'0 0.7
2017-Oct-05 14:00N 35°58' E 014°15'0 0.7
2017-Oct-05 13:30N 35°58' E 014°16'1 1.4
2017-Oct-05 13:00N 35°59' E 014°15'0 0.9
2017-Oct-05 12:30N 35°58' E 014°15'0 0.7
2017-Oct-05 12:00N 35°58' E 014°16'1 2.8
2017-Oct-05 11:30N 35°58' E 014°14'2 3.3
2017-Oct-05 10:59N 35°57' E 014°12'0 0.9
2017-Oct-05 10:30N 35°57' E 014°13'0 0.9
2017-Oct-05 10:00N 35°58' E 014°13'1 1.1
2017-Oct-05 09:30N 35°58' E 014°14'1 1.0
2017-Oct-05 09:00N 35°58' E 014°14'0 0.9
2017-Oct-05 08:30N 35°58' E 014°15'0 0.9
2017-Oct-05 08:00N 35°58' E 014°15'0 0.5
2017-Oct-05 07:30N 35°59' E 014°16'3 5.1
2017-Oct-05 07:00N 35°59' E 014°13'611.4
2017-Oct-05 06:30N 36°03' E 014°08'611.0
2017-Oct-05 05:59N 36°07' E 014°13'713.2
2017-Oct-05 05:30N 36°09' E 014°20'510.6
2017-Oct-05 05:00N 36°13' E 014°16'611.8
2017-Oct-05 04:30N 36°16' E 014°10'611.6
2017-Oct-05 04:00N 36°19' E 014°04'611.6
2017-Oct-05 03:30N 36°23' E 013°58'711.9
2017-Oct-05 02:57N 36°26' E 013°51'25612.5
2017-Oct-04 06:28N 38°54' E 009°27'612.6
2017-Oct-04 05:59N 38°57' E 009°21'611.7
2017-Oct-04 05:30N 39°00' E 009°14'612.1
2017-Oct-04 05:00N 39°03' E 009°08'4 8.4
2017-Oct-04 04:30N 39°05' E 009°03'0 0.2
2017-Oct-04 03:58N 39°05' E 009°03'0 0.0
2017-Oct-04 03:28N 39°05' E 009°03'0 0.0
2017-Oct-04 02:58N 39°05' E 009°03'0 0.0
2017-Oct-04 02:28N 39°05' E 009°03'0 0.0
2017-Oct-04 01:58N 39°05' E 009°03'0 0.0
2017-Oct-04 01:28N 39°05' E 009°03'0 0.0
2017-Oct-04 00:58N 39°05' E 009°03'0 0.0
2017-Oct-04 00:28N 39°05' E 009°03'0 0.0
2017-Oct-03 23:58N 39°05' E 009°03'0 0.0
2017-Oct-03 23:28N 39°05' E 009°03'0 0.0
2017-Oct-03 22:58N 39°05' E 009°03'0 0.0
2017-Oct-03 22:28N 39°05' E 009°03'0 0.0
2017-Oct-03 21:58N 39°05' E 009°03'0 0.0
2017-Oct-03 21:28N 39°05' E 009°03'0 0.0
2017-Oct-03 21:01N 39°05' E 009°03'0 0.0
2017-Oct-03 20:31N 39°05' E 009°03'0 0.0
2017-Oct-03 20:00N 39°05' E 009°03'0 0.0
2017-Oct-03 19:27N 39°05' E 009°03'0 0.0
2017-Oct-03 18:57N 39°05' E 009°03'0 0.0
2017-Oct-03 05:48N 39°05' E 009°03'0 0.0
2017-Oct-03 05:30N 39°05' E 009°03'0 0.0
2017-Oct-03 05:00N 39°05' E 009°03'0 0.0
2017-Oct-03 04:30N 39°05' E 009°03'0 0.0
2017-Oct-03 04:00N 39°05' E 009°03'0 0.0
2017-Oct-03 03:30N 39°05' E 009°03'0 0.0
2017-Oct-03 03:00N 39°05' E 009°03'0 0.0
2017-Oct-03 02:30N 39°05' E 009°03'0 0.0
2017-Oct-03 02:00N 39°05' E 009°03'0 0.0
2017-Oct-03 01:30N 39°05' E 009°03'0 0.0
2017-Oct-03 01:00N 39°05' E 009°03'0 0.0
2017-Oct-03 00:30N 39°05' E 009°03'0 0.0
2017-Oct-02 23:57N 39°05' E 009°03'0 0.0
2017-Oct-02 23:30N 39°05' E 009°03'0 0.0
2017-Oct-02 23:00N 39°05' E 009°03'0 0.0
2017-Oct-02 22:30N 39°05' E 009°03'0 0.0
2017-Oct-02 22:00N 39°05' E 009°03'0 0.0
2017-Oct-02 21:30N 39°05' E 009°03'0 0.0
2017-Oct-02 21:00N 39°05' E 009°03'0 0.0
2017-Oct-02 20:30N 39°05' E 009°03'0 0.0
2017-Oct-02 20:00N 39°05' E 009°03'0 0.0
2017-Oct-02 19:30N 39°05' E 009°03'0 0.0
2017-Oct-02 19:00N 39°05' E 009°03'0 0.0
2017-Oct-02 18:30N 39°05' E 009°03'0 0.0
2017-Oct-02 18:00N 39°05' E 009°03'0 0.0
2017-Oct-02 17:30N 39°05' E 009°03'0 0.0
2017-Oct-02 17:00N 39°05' E 009°03'0 0.0
2017-Oct-02 16:30N 39°05' E 009°03'0 0.0
2017-Oct-02 16:00N 39°05' E 009°03'0 0.0
2017-Oct-02 15:30N 39°05' E 009°03'0 0.0
2017-Oct-02 15:00N 39°05' E 009°03'0 0.0
2017-Oct-02 14:30N 39°05' E 009°03'0 0.0
2017-Oct-02 13:57N 39°05' E 009°03'0 0.0
2017-Oct-02 13:30N 39°05' E 009°03'0 0.0
2017-Oct-02 13:00N 39°05' E 009°03'0 0.0
2017-Oct-02 12:30N 39°05' E 009°03'0 0.0
2017-Oct-02 12:00N 39°05' E 009°03'0 0.0
2017-Oct-02 11:30N 39°05' E 009°03'0 0.0
2017-Oct-02 11:00N 39°05' E 009°03'0 0.0
2017-Oct-02 10:27N 39°05' E 009°03'0 0.0
2017-Oct-02 10:00N 39°05' E 009°03'0 0.0
2017-Oct-02 09:26N 39°05' E 009°03'0 0.0
2017-Oct-02 08:59N 39°05' E 009°03'0 0.0
2017-Oct-02 08:29N 39°05' E 009°03'0 0.0
2017-Oct-02 07:59N 39°05' E 009°03'0 0.0
2017-Oct-02 07:29N 39°05' E 009°03'0 0.0
2017-Oct-02 06:59N 39°05' E 009°03'1 1.9
2017-Oct-02 06:29N 39°04' E 009°04'0 0.4
2017-Oct-02 05:58N 39°04' E 009°04'0 0.2
2017-Oct-02 05:28N 39°04' E 009°04'0 0.0
2017-Oct-02 04:58N 39°04' E 009°04'0 0.0
2017-Oct-02 04:28N 39°04' E 009°04'0 0.0
2017-Oct-02 03:58N 39°04' E 009°04'0 0.0
2017-Oct-02 03:28N 39°04' E 009°04'0 0.0
2017-Oct-02 02:58N 39°04' E 009°04'0 0.1
2017-Oct-02 02:28N 39°04' E 009°04'0 0.0
2017-Oct-02 01:58N 39°04' E 009°04'0 0.0
2017-Oct-02 01:28N 39°04' E 009°04'0 0.0
2017-Oct-02 00:58N 39°04' E 009°04'0 0.1
2017-Oct-02 00:28N 39°04' E 009°04'0 0.0
2017-Oct-01 23:58N 39°04' E 009°04'0 0.1
2017-Oct-01 23:28N 39°04' E 009°04'0 0.1
2017-Oct-01 22:58N 39°04' E 009°04'0 0.0
2017-Oct-01 22:28N 39°04' E 009°04'0 0.0
2017-Oct-01 21:58N 39°04' E 009°04'0 0.1
2017-Oct-01 21:28N 39°04' E 009°04'0 0.1
2017-Oct-01 20:58N 39°04' E 009°03'0 0.0
2017-Oct-01 20:28N 39°04' E 009°04'0 0.0
2017-Oct-01 19:52N 39°04' E 009°03'0 0.0
2017-Oct-01 19:22N 39°04' E 009°04'0 0.2
2017-Oct-01 18:58N 39°04' E 009°04'0 0.1
2017-Oct-01 18:28N 39°04' E 009°04'0 0.1
2017-Oct-01 17:58N 39°04' E 009°04'0 0.1
2017-Oct-01 17:28N 39°04' E 009°04'0 0.1
2017-Oct-01 16:55N 39°04' E 009°04'0 0.0
2017-Oct-01 16:28N 39°04' E 009°04'0 0.1
2017-Oct-01 15:58N 39°04' E 009°04'0 0.0
2017-Oct-01 15:28N 39°04' E 009°04'0 0.0
2017-Oct-01 14:58N 39°04' E 009°04'0 0.0
2017-Oct-01 14:28N 39°04' E 009°04'0 0.0
2017-Oct-01 13:58N 39°04' E 009°03'0 0.0
2017-Oct-01 13:28N 39°04' E 009°03'0 0.1
2017-Oct-01 12:58N 39°04' E 009°03'0 0.1
2017-Oct-01 12:22N 39°04' E 009°03'0 0.1
2017-Oct-01 11:58N 39°04' E 009°04'0 0.1
2017-Oct-01 11:28N 39°04' E 009°04'0 0.0
2017-Oct-01 10:58N 39°04' E 009°04'0 0.1
2017-Oct-01 10:28N 39°04' E 009°04'0 0.0
2017-Oct-01 09:58N 39°04' E 009°04'0 0.0
2017-Oct-01 09:28N 39°04' E 009°04'0 0.0
2017-Oct-01 08:58N 39°04' E 009°04'0 0.0
2017-Oct-01 08:28N 39°04' E 009°04'0 0.0
2017-Oct-01 08:01N 39°04' E 009°04'0 0.0
2017-Oct-01 07:31N 39°04' E 009°04'  

Dump ship's entire track history